sensor_id;sensor_type;location;lat;lon;timestamp;pressure;altitude;pressure_sealevel;temperature;humidity
42601;BME280;28229;48.856;9.088;2023-04-30T00:01:27;98247.53;;;10.33;94.93
42601;BME280;28229;48.856;9.088;2023-04-30T00:03:53;98261.69;;;10.32;95.42
42601;BME280;28229;48.856;9.088;2023-04-30T00:06:19;98259.25;;;10.37;95.31
42601;BME280;28229;48.856;9.088;2023-04-30T00:08:45;98256.03;;;10.35;94.82
42601;BME280;28229;48.856;9.088;2023-04-30T00:11:11;98253.59;;;10.33;95.03
42601;BME280;28229;48.856;9.088;2023-04-30T00:13:37;98257.25;;;10.32;95.14
42601;BME280;28229;48.856;9.088;2023-04-30T00:16:04;98251.56;;;10.28;95.78
42601;BME280;28229;48.856;9.088;2023-04-30T00:18:30;98248.34;;;10.33;95.23
42601;BME280;28229;48.856;9.088;2023-04-30T00:20:56;98255.00;;;10.29;95.47
42601;BME280;28229;48.856;9.088;2023-04-30T00:23:22;98256.84;;;10.28;95.24
42601;BME280;28229;48.856;9.088;2023-04-30T00:25:48;98260.06;;;10.31;95.10
42601;BME280;28229;48.856;9.088;2023-04-30T00:28:14;98257.84;;;10.27;94.53
42601;BME280;28229;48.856;9.088;2023-04-30T00:30:43;98262.28;;;10.34;94.34
42601;BME280;28229;48.856;9.088;2023-04-30T00:33:10;98256.22;;;10.26;93.74
42601;BME280;28229;48.856;9.088;2023-04-30T00:35:36;98258.44;;;10.29;93.59
42601;BME280;28229;48.856;9.088;2023-04-30T00:38:02;98254.41;;;10.20;93.85
42601;BME280;28229;48.856;9.088;2023-04-30T00:40:28;98262.09;;;10.22;93.81
42601;BME280;28229;48.856;9.088;2023-04-30T00:42:55;98259.69;;;10.20;93.94
42601;BME280;28229;48.856;9.088;2023-04-30T00:45:21;98268.75;;;10.24;94.18
42601;BME280;28229;48.856;9.088;2023-04-30T00:47:50;98264.94;;;10.20;94.62
42601;BME280;28229;48.856;9.088;2023-04-30T00:50:17;98261.31;;;10.15;95.27
42601;BME280;28229;48.856;9.088;2023-04-30T00:52:43;98262.94;;;10.09;96.12
42601;BME280;28229;48.856;9.088;2023-04-30T00:55:11;98269.00;;;10.09;96.29
42601;BME280;28229;48.856;9.088;2023-04-30T00:57:38;98261.72;;;10.18;95.81
42601;BME280;28229;48.856;9.088;2023-04-30T01:00:06;98264.16;;;10.13;96.03
42601;BME280;28229;48.856;9.088;2023-04-30T01:02:36;98260.91;;;10.11;96.63
42601;BME280;28229;48.856;9.088;2023-04-30T01:05:03;98266.97;;;10.12;97.03
42601;BME280;28229;48.856;9.088;2023-04-30T01:07:31;98264.34;;;10.05;97.12
42601;BME280;28229;48.856;9.088;2023-04-30T01:09:57;98254.03;;;10.10;95.74
42601;BME280;28229;48.856;9.088;2023-04-30T01:12:47;98255.66;;;10.11;95.54
42601;BME280;28229;48.856;9.088;2023-04-30T01:15:28;98254.63;;;10.12;95.17
42601;BME280;28229;48.856;9.088;2023-04-30T01:18:10;98260.31;;;10.09;94.64
42601;BME280;28229;48.856;9.088;2023-04-30T01:20:43;98262.56;;;10.05;93.91
42601;BME280;28229;48.856;9.088;2023-04-30T01:26:13;98254.06;;;9.97;94.17
42601;BME280;28229;48.856;9.088;2023-04-30T01:28:45;98253.25;;;9.96;94.18
42601;BME280;28229;48.856;9.088;2023-04-30T01:31:17;98245.59;;;9.95;93.53
42601;BME280;28229;48.856;9.088;2023-04-30T01:33:44;98252.25;;;9.90;93.49
42601;BME280;28229;48.856;9.088;2023-04-30T01:36:31;98250.03;;;9.87;94.04
42601;BME280;28229;48.856;9.088;2023-04-30T01:42:15;98249.22;;;9.80;93.96
42601;BME280;28229;48.856;9.088;2023-04-30T01:45:17;98248.81;;;9.83;93.82
42601;BME280;28229;48.856;9.088;2023-04-30T01:47:51;98245.59;;;9.81;93.51
42601;BME280;28229;48.856;9.088;2023-04-30T01:50:50;98250.47;;;9.71;93.69
42601;BME280;28229;48.856;9.088;2023-04-30T01:53:27;98251.69;;;9.75;93.91
42601;BME280;28229;48.856;9.088;2023-04-30T01:56:01;98252.47;;;9.69;94.40
42601;BME280;28229;48.856;9.088;2023-04-30T01:58:28;98248.84;;;9.70;93.92
42601;BME280;28229;48.856;9.088;2023-04-30T02:00:55;98255.09;;;9.69;93.74
42601;BME280;28229;48.856;9.088;2023-04-30T02:03:21;98258.94;;;9.73;94.23
42601;BME280;28229;48.856;9.088;2023-04-30T02:05:49;98254.91;;;9.64;94.21
42601;BME280;28229;48.856;9.088;2023-04-30T02:08:15;98245.19;;;9.71;94.45
42601;BME280;28229;48.856;9.088;2023-04-30T02:10:41;98237.94;;;9.66;93.88
42601;BME280;28229;48.856;9.088;2023-04-30T02:13:07;98250.06;;;9.67;94.46
42601;BME280;28229;48.856;9.088;2023-04-30T02:15:48;98242.00;;;9.56;95.66
42601;BME280;28229;48.856;9.088;2023-04-30T02:18:14;98249.66;;;9.64;95.26
42601;BME280;28229;48.856;9.088;2023-04-30T02:20:40;98243.19;;;9.60;95.05
42601;BME280;28229;48.856;9.088;2023-04-30T02:23:07;98238.34;;;9.57;95.36
42601;BME280;28229;48.856;9.088;2023-04-30T02:25:34;98244.81;;;9.54;95.23
42601;BME280;28229;48.856;9.088;2023-04-30T02:28:03;98244.81;;;9.54;95.55
42601;BME280;28229;48.856;9.088;2023-04-30T02:30:29;98234.72;;;9.58;95.51
42601;BME280;28229;48.856;9.088;2023-04-30T02:32:55;98240.19;;;9.63;94.87
42601;BME280;28229;48.856;9.088;2023-04-30T02:35:22;98240.97;;;9.57;95.36
42601;BME280;28229;48.856;9.088;2023-04-30T02:37:48;98236.75;;;9.56;94.67
42601;BME280;28229;48.856;9.088;2023-04-30T02:40:14;98247.25;;;9.56;94.92
42601;BME280;28229;48.856;9.088;2023-04-30T02:42:40;98243.59;;;9.50;95.33
42601;BME280;28229;48.856;9.088;2023-04-30T02:45:06;98239.97;;;9.51;95.45
42601;BME280;28229;48.856;9.088;2023-04-30T02:47:33;98237.53;;;9.49;95.64
42601;BME280;28229;48.856;9.088;2023-04-30T02:49:59;98239.56;;;9.47;95.84
42601;BME280;28229;48.856;9.088;2023-04-30T02:52:25;98243.00;;;9.48;96.11
42601;BME280;28229;48.856;9.088;2023-04-30T02:54:51;98235.50;;;9.51;95.40
42601;BME280;28229;48.856;9.088;2023-04-30T02:57:18;98235.72;;;9.50;95.54
42601;BME280;28229;48.856;9.088;2023-04-30T02:59:47;98233.09;;;9.43;96.07
42601;BME280;28229;48.856;9.088;2023-04-30T03:02:13;98234.72;;;9.44;95.99
42601;BME280;28229;48.856;9.088;2023-04-30T03:04:40;98230.69;;;9.42;96.46
42601;BME280;28229;48.856;9.088;2023-04-30T03:07:06;98239.97;;;9.44;96.23
42601;BME280;28229;48.856;9.088;2023-04-30T03:09:35;98237.13;;;9.39;96.54
42601;BME280;28229;48.856;9.088;2023-04-30T03:12:01;98228.44;;;9.39;96.47
42601;BME280;28229;48.856;9.088;2023-04-30T03:14:27;98232.72;;;9.40;96.32
42601;BME280;28229;48.856;9.088;2023-04-30T03:16:57;98230.69;;;9.35;96.51
42601;BME280;28229;48.856;9.088;2023-04-30T03:19:23;98234.31;;;9.34;96.99
42601;BME280;28229;48.856;9.088;2023-04-30T03:21:51;98235.53;;;9.38;97.05
42601;BME280;28229;48.856;9.088;2023-04-30T03:24:17;98232.47;;;9.48;96.02
42601;BME280;28229;48.856;9.088;2023-04-30T03:26:45;98238.38;;;9.43;95.90
42601;BME280;28229;48.856;9.088;2023-04-30T03:29:11;98232.72;;;9.40;95.83
42601;BME280;28229;48.856;9.088;2023-04-30T03:31:37;98232.09;;;9.38;96.27
42601;BME280;28229;48.856;9.088;2023-04-30T03:34:03;98235.13;;;9.41;95.90
42601;BME280;28229;48.856;9.088;2023-04-30T03:36:29;98242.38;;;9.39;96.12
42601;BME280;28229;48.856;9.088;2023-04-30T03:38:56;98240.78;;;9.31;96.73
42601;BME280;28229;48.856;9.088;2023-04-30T03:41:22;98247.66;;;9.32;96.81
42601;BME280;28229;48.856;9.088;2023-04-30T03:43:49;98238.75;;;9.33;97.03
42601;BME280;28229;48.856;9.088;2023-04-30T03:46:15;98238.34;;;9.30;97.39
42601;BME280;28229;48.856;9.088;2023-04-30T03:48:41;98242.59;;;9.31;96.99
42601;BME280;28229;48.856;9.088;2023-04-30T03:51:07;98244.41;;;9.30;96.59
42601;BME280;28229;48.856;9.088;2023-04-30T03:53:34;98247.06;;;9.30;96.17
42601;BME280;28229;48.856;9.088;2023-04-30T03:56:01;98249.88;;;9.29;96.23
42601;BME280;28229;48.856;9.088;2023-04-30T03:58:28;98240.16;;;9.29;96.23
42601;BME280;28229;48.856;9.088;2023-04-30T04:00:55;98237.53;;;9.29;96.20
42601;BME280;28229;48.856;9.088;2023-04-30T04:03:21;98233.31;;;9.35;96.41
42601;BME280;28229;48.856;9.088;2023-04-30T04:05:48;98231.69;;;9.34;96.35
42601;BME280;28229;48.856;9.088;2023-04-30T04:08:14;98241.19;;;9.35;96.01
42601;BME280;28229;48.856;9.088;2023-04-30T04:10:41;98238.34;;;9.30;96.51
42601;BME280;28229;48.856;9.088;2023-04-30T04:13:08;98244.84;;;9.34;96.57
42601;BME280;28229;48.856;9.088;2023-04-30T04:15:34;98249.06;;;9.35;96.68
42601;BME280;28229;48.856;9.088;2023-04-30T04:18:01;98257.72;;;9.36;96.50
42601;BME280;28229;48.856;9.088;2023-04-30T04:20:28;98262.78;;;9.37;95.79
42601;BME280;28229;48.856;9.088;2023-04-30T04:22:55;98254.91;;;9.44;95.29
42601;BME280;28229;48.856;9.088;2023-04-30T04:25:22;98256.94;;;9.48;95.14
42601;BME280;28229;48.856;9.088;2023-04-30T04:27:50;98252.50;;;9.42;95.46
42601;BME280;28229;48.856;9.088;2023-04-30T04:30:17;98259.75;;;9.40;95.46
42601;BME280;28229;48.856;9.088;2023-04-30T04:32:44;98256.53;;;9.38;95.55
42601;BME280;28229;48.856;9.088;2023-04-30T04:35:17;98264.63;;;9.37;96.17
42601;BME280;28229;48.856;9.088;2023-04-30T04:37:44;98260.75;;;9.39;96.47
42601;BME280;28229;48.856;9.088;2023-04-30T04:40:10;98254.31;;;9.42;96.51
42601;BME280;28229;48.856;9.088;2023-04-30T04:42:37;98266.44;;;9.36;96.66
42601;BME280;28229;48.856;9.088;2023-04-30T04:45:07;98262.78;;;9.37;96.98
42601;BME280;28229;48.856;9.088;2023-04-30T04:47:34;98260.97;;;9.44;96.36
42601;BME280;28229;48.856;9.088;2023-04-30T04:50:01;98272.91;;;9.47;96.28
42601;BME280;28229;48.856;9.088;2023-04-30T04:52:27;98277.94;;;9.55;95.65
42601;BME280;28229;48.856;9.088;2023-04-30T04:54:54;98261.97;;;9.50;95.76
42601;BME280;28229;48.856;9.088;2023-04-30T04:57:20;98268.47;;;9.47;96.14
42601;BME280;28229;48.856;9.088;2023-04-30T04:59:47;98264.19;;;9.46;96.35
42601;BME280;28229;48.856;9.088;2023-04-30T05:02:13;98263.22;;;9.61;95.60
42601;BME280;28229;48.856;9.088;2023-04-30T05:04:39;98267.44;;;9.55;96.47
42601;BME280;28229;48.856;9.088;2023-04-30T05:07:06;98259.56;;;9.62;96.61
42601;BME280;28229;48.856;9.088;2023-04-30T05:09:33;98265.84;;;9.54;96.93
42601;BME280;28229;48.856;9.088;2023-04-30T05:11:59;98259.97;;;9.59;96.50
42601;BME280;28229;48.856;9.088;2023-04-30T05:14:25;98264.63;;;9.63;96.65
42601;BME280;28229;48.856;9.088;2023-04-30T05:16:51;98263.00;;;9.62;97.31
42601;BME280;28229;48.856;9.088;2023-04-30T05:19:17;98263.59;;;9.71;96.88
42601;BME280;28229;48.856;9.088;2023-04-30T05:21:44;98266.63;;;9.81;95.68
42601;BME280;28229;48.856;9.088;2023-04-30T05:24:10;98269.44;;;9.80;95.17
42601;BME280;28229;48.856;9.088;2023-04-30T05:26:36;98269.84;;;9.83;93.84
42601;BME280;28229;48.856;9.088;2023-04-30T05:29:02;98268.25;;;9.82;93.88
42601;BME280;28229;48.856;9.088;2023-04-30T05:31:28;98271.47;;;9.71;94.32
42601;BME280;28229;48.856;9.088;2023-04-30T05:33:54;98270.25;;;9.80;94.44
42601;BME280;28229;48.856;9.088;2023-04-30T05:36:20;98265.78;;;9.87;94.14
42601;BME280;28229;48.856;9.088;2023-04-30T05:38:46;98281.56;;;9.87;94.38
42601;BME280;28229;48.856;9.088;2023-04-30T05:41:12;98269.06;;;9.89;93.83
42601;BME280;28229;48.856;9.088;2023-04-30T05:43:39;98281.16;;;9.90;93.85
42601;BME280;28229;48.856;9.088;2023-04-30T05:46:05;98269.03;;;9.96;93.64
42601;BME280;28229;48.856;9.088;2023-04-30T05:48:31;98273.47;;;9.96;94.32
42601;BME280;28229;48.856;9.088;2023-04-30T05:50:57;98273.47;;;10.09;93.28
42601;BME280;28229;48.856;9.088;2023-04-30T05:53:23;98262.56;;;10.05;93.86
42601;BME280;28229;48.856;9.088;2023-04-30T05:55:49;98261.13;;;10.09;94.13
42601;BME280;28229;48.856;9.088;2023-04-30T05:58:16;98260.09;;;10.17;92.87
42601;BME280;28229;48.856;9.088;2023-04-30T06:00:42;98263.31;;;10.26;91.15
42601;BME280;28229;48.856;9.088;2023-04-30T06:03:08;98269.59;;;10.32;90.93
42601;BME280;28229;48.856;9.088;2023-04-30T06:05:34;98272.81;;;10.34;89.88
42601;BME280;28229;48.856;9.088;2023-04-30T06:08:00;98263.91;;;10.35;89.59
42601;BME280;28229;48.856;9.088;2023-04-30T06:10:26;98264.09;;;10.40;89.59
42601;BME280;28229;48.856;9.088;2023-04-30T06:12:53;98270.38;;;10.39;89.22
42601;BME280;28229;48.856;9.088;2023-04-30T06:15:19;98271.34;;;10.51;87.56
42601;BME280;28229;48.856;9.088;2023-04-30T06:17:45;98268.91;;;10.50;88.05
42601;BME280;28229;48.856;9.088;2023-04-30T06:20:11;98279.78;;;10.66;87.76
42601;BME280;28229;48.856;9.088;2023-04-30T06:22:39;98276.09;;;10.74;87.14
42601;BME280;28229;48.856;9.088;2023-04-30T06:25:06;98277.25;;;10.85;85.69
42601;BME280;28229;48.856;9.088;2023-04-30T06:27:32;98279.66;;;10.93;85.37
42601;BME280;28229;48.856;9.088;2023-04-30T06:29:58;98276.34;;;11.04;84.34
42601;BME280;28229;48.856;9.088;2023-04-30T06:32:26;98274.06;;;11.15;86.43
42601;BME280;28229;48.856;9.088;2023-04-30T06:34:52;98277.81;;;11.32;90.50
42601;BME280;28229;48.856;9.088;2023-04-30T06:37:18;98282.72;;;11.54;88.51
42601;BME280;28229;48.856;9.088;2023-04-30T06:39:45;98278.56;;;11.65;83.24
42601;BME280;28229;48.856;9.088;2023-04-30T06:42:11;98277.44;;;11.79;84.32
42601;BME280;28229;48.856;9.088;2023-04-30T06:44:37;98278.75;;;11.95;81.53
42601;BME280;28229;48.856;9.088;2023-04-30T06:47:03;98280.06;;;12.04;79.87
42601;BME280;28229;48.856;9.088;2023-04-30T06:49:29;98276.13;;;12.13;79.55
42601;BME280;28229;48.856;9.088;2023-04-30T06:51:56;98280.75;;;12.18;78.56
42601;BME280;28229;48.856;9.088;2023-04-30T06:54:23;98286.09;;;12.11;78.46
42601;BME280;28229;48.856;9.088;2023-04-30T06:56:51;98286.09;;;12.11;75.39
42601;BME280;28229;48.856;9.088;2023-04-30T06:59:17;98291.38;;;12.11;76.08
42601;BME280;28229;48.856;9.088;2023-04-30T07:01:45;98286.81;;;12.18;75.34
42601;BME280;28229;48.856;9.088;2023-04-30T07:04:11;98282.72;;;12.23;75.06
42601;BME280;28229;48.856;9.088;2023-04-30T07:06:37;98289.88;;;12.15;75.01
42601;BME280;28229;48.856;9.088;2023-04-30T07:09:03;98288.13;;;12.09;75.86
42601;BME280;28229;48.856;9.088;2023-04-30T07:11:29;98275.16;;;12.08;75.75
42601;BME280;28229;48.856;9.088;2023-04-30T07:13:55;98273.00;;;12.23;76.14
42601;BME280;28229;48.856;9.088;2023-04-30T07:16:24;98273.19;;;12.40;76.03
42601;BME280;28229;48.856;9.088;2023-04-30T07:18:50;98276.94;;;12.51;74.55
42601;BME280;28229;48.856;9.088;2023-04-30T07:21:17;98273.78;;;12.61;74.79
42601;BME280;28229;48.856;9.088;2023-04-30T07:23:43;98277.00;;;12.63;74.47
42601;BME280;28229;48.856;9.088;2023-04-30T07:26:10;98275.81;;;12.77;73.52
42601;BME280;28229;48.856;9.088;2023-04-30T07:28:36;98273.59;;;12.92;71.69
42601;BME280;28229;48.856;9.088;2023-04-30T07:31:03;98267.09;;;13.07;69.92
42601;BME280;28229;48.856;9.088;2023-04-30T07:33:29;98265.66;;;13.23;70.74
42601;BME280;28229;48.856;9.088;2023-04-30T07:35:55;98262.47;;;13.32;70.24
42601;BME280;28229;48.856;9.088;2023-04-30T07:38:23;98260.88;;;13.43;69.65
42601;BME280;28229;48.856;9.088;2023-04-30T07:40:49;98267.00;;;13.56;69.91
42601;BME280;28229;48.856;9.088;2023-04-30T07:43:16;98254.00;;;13.78;67.23
42601;BME280;28229;48.856;9.088;2023-04-30T07:45:42;98252.66;;;13.87;68.43
42601;BME280;28229;48.856;9.088;2023-04-30T07:48:09;98260.47;;;13.82;65.38
42601;BME280;28229;48.856;9.088;2023-04-30T07:50:35;98249.88;;;13.94;66.42
42601;BME280;28229;48.856;9.088;2023-04-30T07:53:02;98254.59;;;14.03;65.27
42601;BME280;28229;48.856;9.088;2023-04-30T07:55:28;98251.34;;;14.13;65.28
42601;BME280;28229;48.856;9.088;2023-04-30T07:57:54;98245.81;;;14.15;66.12
42601;BME280;28229;48.856;9.088;2023-04-30T08:00:20;98245.81;;;14.15;65.91
42601;BME280;28229;48.856;9.088;2023-04-30T08:02:47;98252.47;;;14.29;65.82
42601;BME280;28229;48.856;9.088;2023-04-30T08:05:13;98254.66;;;14.44;62.31
42601;BME280;28229;48.856;9.088;2023-04-30T08:07:39;98251.38;;;14.54;63.57
42601;BME280;28229;48.856;9.088;2023-04-30T08:10:06;98257.03;;;14.69;63.29
42601;BME280;28229;48.856;9.088;2023-04-30T08:12:35;98252.59;;;14.87;67.12
42601;BME280;28229;48.856;9.088;2023-04-30T08:15:02;98253.41;;;15.04;62.75
42601;BME280;28229;48.856;9.088;2023-04-30T08:17:30;98247.81;;;15.34;62.60
42601;BME280;28229;48.856;9.088;2023-04-30T08:19:57;98240.59;;;15.30;60.29
42601;BME280;28229;48.856;9.088;2023-04-30T08:22:23;98248.66;;;15.06;59.62
42601;BME280;28229;48.856;9.088;2023-04-30T08:24:49;98257.56;;;15.00;60.43
42601;BME280;28229;48.856;9.088;2023-04-30T08:27:18;98250.22;;;15.19;60.89
42601;BME280;28229;48.856;9.088;2023-04-30T08:29:44;98243.06;;;15.19;57.35
42601;BME280;28229;48.856;9.088;2023-04-30T08:32:10;98257.19;;;15.08;56.62
42601;BME280;28229;48.856;9.088;2023-04-30T08:34:36;98258.69;;;14.87;59.35
42601;BME280;28229;48.856;9.088;2023-04-30T08:37:03;98250.19;;;15.02;58.82
42601;BME280;28229;48.856;9.088;2023-04-30T08:39:29;98254.00;;;15.23;58.48
42601;BME280;28229;48.856;9.088;2023-04-30T08:41:55;98246.56;;;15.37;57.12
42601;BME280;28229;48.856;9.088;2023-04-30T08:44:22;98258.59;;;15.61;57.46
42601;BME280;28229;48.856;9.088;2023-04-30T08:46:52;98249.44;;;15.86;56.01
42601;BME280;28229;48.856;9.088;2023-04-30T08:49:21;98255.31;;;15.88;54.82
42601;BME280;28229;48.856;9.088;2023-04-30T08:51:48;98252.09;;;15.86;53.22
42601;BME280;28229;48.856;9.088;2023-04-30T08:54:15;98254.75;;;15.86;54.23
42601;BME280;28229;48.856;9.088;2023-04-30T08:56:46;98254.34;;;15.94;51.85
42601;BME280;28229;48.856;9.088;2023-04-30T08:59:12;98257.34;;;15.81;52.36
42601;BME280;28229;48.856;9.088;2023-04-30T09:01:40;98256.66;;;15.57;53.37
42601;BME280;28229;48.856;9.088;2023-04-30T09:04:06;98262.59;;;15.30;52.96
42601;BME280;28229;48.856;9.088;2023-04-30T09:06:32;98251.63;;;14.93;53.74
42601;BME280;28229;48.856;9.088;2023-04-30T09:09:11;98247.94;;;14.94;52.24
42601;BME280;28229;48.856;9.088;2023-04-30T09:11:38;98244.25;;;14.95;52.27
42601;BME280;28229;48.856;9.088;2023-04-30T09:14:04;98245.34;;;14.99;50.98
42601;BME280;28229;48.856;9.088;2023-04-30T09:16:47;98249.19;;;14.91;51.10
42601;BME280;28229;48.856;9.088;2023-04-30T09:19:40;98253.03;;;14.83;53.15
42601;BME280;28229;48.856;9.088;2023-04-30T09:22:18;98248.22;;;14.80;53.35
42601;BME280;28229;48.856;9.088;2023-04-30T09:24:46;98256.44;;;14.96;52.52
42601;BME280;28229;48.856;9.088;2023-04-30T09:27:18;98253.41;;;15.04;51.81
42601;BME280;28229;48.856;9.088;2023-04-30T09:29:44;98251.97;;;15.13;51.50
42601;BME280;28229;48.856;9.088;2023-04-30T09:32:11;98250.00;;;15.20;53.18
42601;BME280;28229;48.856;9.088;2023-04-30T09:34:39;98253.69;;;15.19;51.25
42601;BME280;28229;48.856;9.088;2023-04-30T09:37:05;98250.69;;;15.33;50.82
42601;BME280;28229;48.856;9.088;2023-04-30T09:39:32;98246.13;;;15.45;50.54
42601;BME280;28229;48.856;9.088;2023-04-30T09:42:11;98251.78;;;15.66;50.18
42601;BME280;28229;48.856;9.088;2023-04-30T09:44:38;98248.94;;;15.55;51.39
42601;BME280;28229;48.856;9.088;2023-04-30T09:47:13;98250.38;;;15.63;50.09
42601;BME280;28229;48.856;9.088;2023-04-30T09:49:42;98249.44;;;15.69;49.41
42601;BME280;28229;48.856;9.088;2023-04-30T09:52:10;98246.31;;;15.55;50.23
42601;BME280;28229;48.856;9.088;2023-04-30T09:54:37;98249.94;;;15.49;49.98
42601;BME280;28229;48.856;9.088;2023-04-30T09:57:04;98247.09;;;15.56;51.08
42601;BME280;28229;48.856;9.088;2023-04-30T09:59:34;98246.06;;;15.57;50.95
42601;BME280;28229;48.856;9.088;2023-04-30T10:02:03;98246.03;;;15.40;51.43
42601;BME280;28229;48.856;9.088;2023-04-30T10:04:36;98242.84;;;15.21;50.37
42601;BME280;28229;48.856;9.088;2023-04-30T10:07:07;98246.19;;;15.16;52.00
42601;BME280;28229;48.856;9.088;2023-04-30T10:09:43;98239.63;;;15.19;50.15
42601;BME280;28229;48.856;9.088;2023-04-30T10:12:13;98233.50;;;15.18;50.11
42601;BME280;28229;48.856;9.088;2023-04-30T10:14:51;98241.00;;;15.21;49.70
42601;BME280;28229;48.856;9.088;2023-04-30T10:17:19;98241.06;;;15.27;50.36
42601;BME280;28229;48.856;9.088;2023-04-30T10:19:51;98245.09;;;15.46;49.01
42601;BME280;28229;48.856;9.088;2023-04-30T10:22:18;98248.63;;;15.69;48.11
42601;BME280;28229;48.856;9.088;2023-04-30T10:24:44;98238.03;;;15.86;47.85
42601;BME280;28229;48.856;9.088;2023-04-30T10:27:11;98236.75;;;15.88;48.42
42601;BME280;28229;48.856;9.088;2023-04-30T10:29:38;98241.91;;;15.78;47.97
42601;BME280;28229;48.856;9.088;2023-04-30T10:32:05;98236.84;;;15.76;47.39
42601;BME280;28229;48.856;9.088;2023-04-30T10:37:15;98237.44;;;15.67;49.13
42601;BME280;28229;48.856;9.088;2023-04-30T10:39:44;98231.59;;;15.65;48.56
42601;BME280;28229;48.856;9.088;2023-04-30T10:42:11;98232.31;;;15.77;47.91
42601;BME280;28229;48.856;9.088;2023-04-30T10:44:38;98226.06;;;15.83;49.47
42601;BME280;28229;48.856;9.088;2023-04-30T10:47:06;98222.16;;;15.74;48.75
42601;BME280;28229;48.856;9.088;2023-04-30T10:49:32;98227.59;;;15.62;47.73
42601;BME280;28229;48.856;9.088;2023-04-30T10:52:01;98227.91;;;15.66;48.36
42601;BME280;28229;48.856;9.088;2023-04-30T10:54:30;98219.06;;;15.77;47.41
42601;BME280;28229;48.856;9.088;2023-04-30T10:57:11;98229.28;;;15.85;48.71
42601;BME280;28229;48.856;9.088;2023-04-30T10:59:44;98219.81;;;16.11;47.19
42601;BME280;28229;48.856;9.088;2023-04-30T11:02:14;98223.44;;;16.27;47.22
42601;BME280;28229;48.856;9.088;2023-04-30T11:07:33;98222.06;;;16.47;45.95
42601;BME280;28229;48.856;9.088;2023-04-30T11:10:00;98210.91;;;16.23;45.80
42601;BME280;28229;48.856;9.088;2023-04-30T11:12:29;98217.50;;;16.20;47.13
42601;BME280;28229;48.856;9.088;2023-04-30T11:15:11;98220.84;;;16.32;46.07
42601;BME280;28229;48.856;9.088;2023-04-30T11:17:37;98215.66;;;16.43;46.31
42601;BME280;28229;48.856;9.088;2023-04-30T11:20:04;98204.56;;;16.46;45.48
42601;BME280;28229;48.856;9.088;2023-04-30T11:22:31;98208.38;;;16.55;45.50
42601;BME280;28229;48.856;9.088;2023-04-30T11:25:11;98216.75;;;16.47;45.26
42601;BME280;28229;48.856;9.088;2023-04-30T11:27:42;98202.19;;;16.49;46.41
42601;BME280;28229;48.856;9.088;2023-04-30T11:30:13;98211.19;;;16.70;45.31
42601;BME280;28229;48.856;9.088;2023-04-30T11:32:44;98210.44;;;16.97;43.24
42601;BME280;28229;48.856;9.088;2023-04-30T11:35:14;98197.69;;;16.99;45.06
42601;BME280;28229;48.856;9.088;2023-04-30T11:37:43;98200.66;;;16.81;43.71
42601;BME280;28229;48.856;9.088;2023-04-30T11:40:11;98203.97;;;16.66;43.98
42601;BME280;28229;48.856;9.088;2023-04-30T11:42:38;98196.25;;;16.64;44.83
42601;BME280;28229;48.856;9.088;2023-04-30T11:45:07;98202.97;;;16.72;45.21
42601;BME280;28229;48.856;9.088;2023-04-30T11:48:00;98195.16;;;16.60;44.77
42601;BME280;28229;48.856;9.088;2023-04-30T11:50:32;98199.84;;;16.53;44.64
42601;BME280;28229;48.856;9.088;2023-04-30T11:52:59;98189.88;;;16.65;44.58
42601;BME280;28229;48.856;9.088;2023-04-30T11:55:30;98198.50;;;16.78;45.57
42601;BME280;28229;48.856;9.088;2023-04-30T11:57:57;98199.19;;;16.90;43.68
42601;BME280;28229;48.856;9.088;2023-04-30T12:00:29;98188.13;;;17.03;42.81
42601;BME280;28229;48.856;9.088;2023-04-30T12:02:56;98194.63;;;17.18;43.02
42601;BME280;28229;48.856;9.088;2023-04-30T12:05:25;98184.59;;;17.25;41.88
42601;BME280;28229;48.856;9.088;2023-04-30T12:08:00;98176.47;;;17.04;43.54
42601;BME280;28229;48.856;9.088;2023-04-30T12:10:30;98185.47;;;17.03;44.42
42601;BME280;28229;48.856;9.088;2023-04-30T12:12:56;98180.34;;;17.29;44.89
42601;BME280;28229;48.856;9.088;2023-04-30T12:15:24;98171.09;;;16.99;45.49
42601;BME280;28229;48.856;9.088;2023-04-30T12:17:53;98173.72;;;16.94;45.75
42601;BME280;28229;48.856;9.088;2023-04-30T12:20:20;98169.78;;;17.02;45.14
42601;BME280;28229;48.856;9.088;2023-04-30T12:22:48;98168.31;;;16.84;45.21
42601;BME280;28229;48.856;9.088;2023-04-30T12:25:16;98172.50;;;16.52;44.42
42601;BME280;28229;48.856;9.088;2023-04-30T12:27:45;98175.88;;;16.48;45.13
42601;BME280;28229;48.856;9.088;2023-04-30T12:30:12;98182.28;;;16.52;45.21
42601;BME280;28229;48.856;9.088;2023-04-30T12:32:40;98183.72;;;16.60;44.54
42601;BME280;28229;48.856;9.088;2023-04-30T12:35:17;98182.53;;;16.72;44.57
42601;BME280;28229;48.856;9.088;2023-04-30T12:37:44;98187.44;;;16.86;44.83
42601;BME280;28229;48.856;9.088;2023-04-30T12:40:12;98182.22;;;16.69;44.63
42601;BME280;28229;48.856;9.088;2023-04-30T12:42:43;98174.28;;;16.47;44.88
42601;BME280;28229;48.856;9.088;2023-04-30T12:45:09;98173.56;;;16.29;45.62
42601;BME280;28229;48.856;9.088;2023-04-30T12:47:38;98172.56;;;16.35;46.16
42601;BME280;28229;48.856;9.088;2023-04-30T12:50:11;98168.34;;;16.40;46.02
42601;BME280;28229;48.856;9.088;2023-04-30T12:52:38;98173.47;;;16.46;45.59
42601;BME280;28229;48.856;9.088;2023-04-30T12:55:18;98170.16;;;16.56;43.70
42601;BME280;28229;48.856;9.088;2023-04-30T12:58:12;98161.56;;;16.76;43.28
42601;BME280;28229;48.856;9.088;2023-04-30T13:00:46;98156.56;;;16.80;43.41
42601;BME280;28229;48.856;9.088;2023-04-30T13:03:16;98157.84;;;16.77;43.88
42601;BME280;28229;48.856;9.088;2023-04-30T13:05:46;98150.16;;;16.81;44.25
42601;BME280;28229;48.856;9.088;2023-04-30T13:08:13;98145.22;;;16.89;45.04
42601;BME280;28229;48.856;9.088;2023-04-30T13:10:40;98150.88;;;16.98;43.25
42601;BME280;28229;48.856;9.088;2023-04-30T13:13:06;98149.94;;;17.09;41.77
42601;BME280;28229;48.856;9.088;2023-04-30T13:15:32;98140.94;;;17.16;42.56
42601;BME280;28229;48.856;9.088;2023-04-30T13:17:58;98136.88;;;17.08;43.42
42601;BME280;28229;48.856;9.088;2023-04-30T13:20:25;98128.91;;;16.75;44.83
42601;BME280;28229;48.856;9.088;2023-04-30T13:22:52;98140.41;;;16.59;45.73